createdAt,value
2019-03-01T00:01:15.247Z,7.10
2019-03-01T00:03:43.672Z,7.10
2019-03-01T00:06:26.690Z,7.10
2019-03-01T00:09:27.087Z,7.10
2019-03-01T00:12:16.814Z,7.00
2019-03-01T00:15:11.143Z,7.00
2019-03-01T00:17:57.780Z,7.00
2019-03-01T00:20:38.256Z,7.00
2019-03-01T00:23:32.715Z,7.00
2019-03-01T00:26:33.059Z,6.90
2019-03-01T00:29:10.568Z,6.90
2019-03-01T00:32:09.200Z,6.90
2019-03-01T00:34:49.947Z,6.90
2019-03-01T00:37:42.486Z,6.90
2019-03-01T00:40:19.943Z,6.80
2019-03-01T00:43:06.625Z,6.80
2019-03-01T00:45:35.002Z,6.90
2019-03-01T00:48:03.379Z,6.80
2019-03-01T00:50:31.726Z,6.80
2019-03-01T00:53:00.052Z,6.80
2019-03-01T00:55:28.405Z,6.70
2019-03-01T00:57:56.816Z,6.70
2019-03-01T01:00:34.382Z,6.60
2019-03-01T01:03:02.689Z,6.60
2019-03-01T01:05:30.960Z,6.60
2019-03-01T01:07:59.353Z,6.70
2019-03-01T01:10:27.624Z,6.60
2019-03-01T01:12:55.898Z,6.50
2019-03-01T01:15:24.296Z,6.60
2019-03-01T01:17:52.572Z,6.50
2019-03-01T01:20:20.931Z,6.50
2019-03-01T01:22:49.364Z,6.50
2019-03-01T01:25:17.645Z,6.50
2019-03-01T01:27:45.996Z,6.50
2019-03-01T01:30:14.635Z,6.40
2019-03-01T01:32:42.923Z,6.40
2019-03-01T01:35:11.203Z,6.50
2019-03-01T01:37:39.540Z,6.50
2019-03-01T01:40:09.959Z,6.50
2019-03-01T01:42:38.398Z,6.40
2019-03-01T01:45:09.776Z,6.40
2019-03-01T01:47:38.141Z,6.40
2019-03-01T01:50:08.821Z,6.40
2019-03-01T01:52:37.130Z,6.50
2019-03-01T01:55:06.171Z,6.50
2019-03-01T01:57:34.447Z,6.40
2019-03-01T02:00:02.836Z,6.20
2019-03-01T02:02:31.155Z,6.20
2019-03-01T02:04:59.429Z,6.20
2019-03-01T02:07:27.731Z,6.20
2019-03-01T02:09:56.001Z,6.30
2019-03-01T02:12:24.278Z,6.40
2019-03-01T02:14:52.658Z,6.40
2019-03-01T02:17:20.934Z,6.30
2019-03-01T02:19:49.219Z,6.30
2019-03-01T02:22:17.531Z,6.30
2019-03-01T02:24:45.807Z,6.20
2019-03-01T02:27:22.443Z,6.30
2019-03-01T02:29:50.718Z,6.40
2019-03-01T02:32:28.647Z,6.40
2019-03-01T02:34:56.996Z,6.20
2019-03-01T02:37:25.353Z,6.20
2019-03-01T02:39:53.746Z,6.30
2019-03-01T02:42:22.125Z,6.30
2019-03-01T02:44:50.548Z,6.20
2019-03-01T02:47:18.940Z,6.00
2019-03-01T02:49:47.364Z,5.90
2019-03-01T02:52:15.720Z,5.90
2019-03-01T02:54:44.023Z,5.80
2019-03-01T02:57:12.396Z,5.70
2019-03-01T02:59:40.738Z,5.50
2019-03-01T03:02:09.067Z,5.50
2019-03-01T03:04:37.353Z,5.50
2019-03-01T03:07:13.103Z,5.50
2019-03-01T03:09:41.556Z,5.40
2019-03-01T03:12:09.835Z,5.40
2019-03-01T03:14:38.219Z,5.40
2019-03-01T03:17:06.597Z,5.40
2019-03-01T03:19:34.876Z,5.30
2019-03-01T03:22:03.278Z,5.30
2019-03-01T03:24:31.619Z,5.20
2019-03-01T03:26:59.925Z,5.10
2019-03-01T03:29:28.281Z,5.10
2019-03-01T03:31:56.553Z,5.00
2019-03-01T03:34:25.165Z,4.90
2019-03-01T03:36:53.553Z,4.70
2019-03-01T03:39:21.830Z,4.60
2019-03-01T03:41:50.250Z,4.50
2019-03-01T03:44:18.647Z,4.20
2019-03-01T03:46:46.924Z,4.10
2019-03-01T03:49:15.200Z,3.80
2019-03-01T03:51:43.593Z,3.60
2019-03-01T03:54:11.960Z,3.50
2019-03-01T03:56:40.253Z,3.50
2019-03-01T03:59:08.638Z,3.40
2019-03-01T04:01:36.983Z,3.30
2019-03-01T04:04:05.257Z,3.20
2019-03-01T04:06:33.575Z,3.10
2019-03-01T04:09:01.961Z,3.00
2019-03-01T04:11:30.368Z,3.10
2019-03-01T04:13:58.752Z,3.00
2019-03-01T04:16:27.104Z,3.10
2019-03-01T04:18:55.380Z,3.30
2019-03-01T04:21:23.768Z,3.40
2019-03-01T04:23:52.115Z,3.30
2019-03-01T04:26:20.400Z,3.10
2019-03-01T04:28:48.716Z,3.30
2019-03-01T04:31:16.991Z,3.40
2019-03-01T04:33:45.268Z,3.40
2019-03-01T04:36:13.654Z,3.40
2019-03-01T04:38:42.009Z,3.40
2019-03-01T04:41:10.393Z,3.50
2019-03-01T04:43:38.691Z,3.60
2019-03-01T04:46:06.967Z,3.50
2019-03-01T04:48:35.239Z,3.40
2019-03-01T04:51:03.562Z,3.30
2019-03-01T04:53:31.915Z,3.40
2019-03-01T04:56:00.197Z,3.40
2019-03-01T04:58:28.571Z,3.50
2019-03-01T05:00:57.215Z,3.40
2019-03-01T05:03:25.569Z,3.20
2019-03-01T05:05:53.884Z,3.30
2019-03-01T05:08:22.164Z,3.30
2019-03-01T05:10:50.534Z,3.30
2019-03-01T05:13:18.909Z,3.30
2019-03-01T05:15:47.263Z,3.40
2019-03-01T05:18:15.544Z,3.60
2019-03-01T05:20:43.940Z,3.50
2019-03-01T05:23:12.295Z,3.50
2019-03-01T05:25:40.677Z,3.50
2019-03-01T05:28:08.999Z,3.40
2019-03-01T05:30:37.297Z,3.50
2019-03-01T05:33:05.643Z,3.50
2019-03-01T05:35:33.967Z,3.40
2019-03-01T05:38:02.380Z,3.40
2019-03-01T05:40:30.655Z,3.40
2019-03-01T05:42:58.963Z,3.60
2019-03-01T05:45:29.006Z,3.50
2019-03-01T05:47:57.279Z,3.60
2019-03-01T05:50:25.592Z,3.80
2019-03-01T05:52:53.974Z,3.90
2019-03-01T05:56:09.381Z,3.90
2019-03-01T05:58:28.974Z,3.70
2019-03-01T06:01:20.472Z,3.50
2019-03-01T06:04:04.125Z,3.60
2019-03-01T06:06:47.719Z,3.40
2019-03-01T06:09:32.535Z,3.40
2019-03-01T06:12:20.585Z,3.30
2019-03-01T06:15:16.219Z,3.50
2019-03-01T06:18:12.591Z,3.40
2019-03-01T06:21:00.689Z,3.40
2019-03-01T06:23:35.139Z,3.40
2019-03-01T06:26:12.608Z,3.40
2019-03-01T06:28:49.727Z,3.50
2019-03-01T06:31:39.441Z,3.50
2019-03-01T06:34:29.109Z,3.60
2019-03-01T06:37:16.855Z,3.70
2019-03-01T06:40:02.747Z,3.60
2019-03-01T06:43:06.039Z,3.60
2019-03-01T06:45:49.742Z,3.70
2019-03-01T06:48:24.068Z,3.90
2019-03-01T06:50:54.023Z,3.80
2019-03-01T06:53:22.319Z,3.80
2019-03-01T06:55:50.683Z,4.00
2019-03-01T06:58:20.795Z,4.10
2019-03-01T07:00:56.879Z,4.30
2019-03-01T07:03:25.195Z,4.30
2019-03-01T07:06:02.965Z,4.30
2019-03-01T07:08:23.729Z,4.50
2019-03-01T07:10:59.965Z,4.50
2019-03-01T07:13:28.323Z,4.30
2019-03-01T07:15:59.578Z,4.30
2019-03-01T07:18:29.325Z,4.30
2019-03-01T07:20:56.919Z,4.40
2019-03-01T07:23:25.263Z,4.20
2019-03-01T07:25:54.852Z,4.30
2019-03-01T07:28:23.534Z,4.40
2019-03-01T07:30:51.814Z,4.50
2019-03-01T07:33:20.213Z,4.70
2019-03-01T07:35:48.724Z,4.80
2019-03-01T07:38:17.070Z,4.50
2019-03-01T07:40:45.538Z,4.50
2019-03-01T07:43:14.066Z,4.50
2019-03-01T07:45:42.433Z,4.40
2019-03-01T07:48:10.753Z,4.30
2019-03-01T07:50:39.027Z,4.40
2019-03-01T07:53:07.407Z,4.40
2019-03-01T07:55:36.053Z,4.50
2019-03-01T07:58:04.455Z,4.60
2019-03-01T08:00:32.811Z,4.60
2019-03-01T08:03:01.129Z,4.60
2019-03-01T08:05:29.400Z,4.70
2019-03-01T08:08:03.489Z,4.60
2019-03-01T08:10:30.131Z,4.80
2019-03-01T08:12:58.531Z,4.90
2019-03-01T08:15:30.010Z,4.90
2019-03-01T08:18:20.662Z,5.00
2019-03-01T08:20:49.392Z,5.10
2019-03-01T08:23:17.868Z,5.30
2019-03-01T08:25:46.159Z,5.50
2019-03-01T08:28:14.439Z,5.70
2019-03-01T08:30:45.775Z,5.80
2019-03-01T08:33:12.755Z,6.00
2019-03-01T08:35:41.096Z,6.20
2019-03-01T08:38:09.539Z,6.10
2019-03-01T08:40:37.819Z,6.40
2019-03-01T08:43:11.809Z,6.40
2019-03-01T08:45:36.399Z,6.70
2019-03-01T08:48:04.676Z,6.50
2019-03-01T08:50:33.113Z,6.60
2019-03-01T08:53:01.493Z,6.60
2019-03-01T08:55:30.795Z,6.40
2019-03-01T08:58:02.899Z,6.00
2019-03-01T09:00:38.692Z,6.00
2019-03-01T09:03:10.363Z,5.90
2019-03-01T09:05:38.713Z,6.10
2019-03-01T09:08:07.104Z,6.40
2019-03-01T09:10:35.460Z,6.20
2019-03-01T09:13:03.816Z,6.20
2019-03-01T09:15:32.215Z,6.30
2019-03-01T09:18:00.496Z,6.40
2019-03-01T09:20:28.842Z,6.50
2019-03-01T09:22:57.311Z,6.80
2019-03-01T09:25:25.586Z,7.10
2019-03-01T09:27:53.865Z,7.20
2019-03-01T09:30:26.000Z,7.10
2019-03-01T09:32:54.579Z,7.00
2019-03-01T09:35:43.888Z,6.90
2019-03-01T09:38:12.543Z,6.80
2019-03-01T09:40:40.823Z,6.50
2019-03-01T09:43:09.219Z,6.50
2019-03-01T09:45:37.635Z,6.30
2019-03-01T09:48:08.779Z,6.40
2019-03-01T09:50:38.103Z,6.40
2019-03-01T09:53:06.011Z,6.30
2019-03-01T09:55:34.850Z,6.30
2019-03-01T09:58:04.553Z,6.30
2019-03-01T10:00:56.345Z,6.20
2019-03-01T10:03:21.500Z,6.30
2019-03-01T10:05:49.783Z,5.70
2019-03-01T10:08:18.139Z,5.80
2019-03-01T10:10:46.456Z,6.00
2019-03-01T10:13:14.810Z,6.30
2019-03-01T10:15:43.116Z,6.60
2019-03-01T10:18:11.435Z,6.70
2019-03-01T10:20:39.851Z,7.10
2019-03-01T10:23:08.220Z,7.30
2019-03-01T10:25:36.608Z,7.80
2019-03-01T10:28:04.888Z,7.90
2019-03-01T10:30:33.155Z,8.20
2019-03-01T10:33:01.473Z,7.90
2019-03-01T10:35:29.757Z,7.80
2019-03-01T10:37:58.095Z,7.20
2019-03-01T10:40:27.555Z,7.00
2019-03-01T10:42:55.845Z,7.00
2019-03-01T10:45:28.603Z,6.80
2019-03-01T10:47:57.339Z,6.60
2019-03-01T10:50:25.627Z,6.40
2019-03-01T10:52:53.899Z,6.30
2019-03-01T10:55:22.286Z,6.30
2019-03-01T10:57:50.663Z,6.20
2019-03-01T11:00:24.479Z,6.00
2019-03-01T11:02:52.791Z,5.90
2019-03-01T11:05:21.150Z,5.90
2019-03-01T11:07:50.744Z,5.90
2019-03-01T11:10:39.708Z,6.00
2019-03-01T11:13:09.804Z,6.20
2019-03-01T11:15:38.155Z,6.20
2019-03-01T11:18:06.463Z,6.20
2019-03-01T11:20:34.811Z,6.20
2019-03-01T11:23:03.094Z,6.20
2019-03-01T11:25:31.575Z,6.30
2019-03-01T11:27:59.861Z,6.30
2019-03-01T11:30:30.550Z,6.20
2019-03-01T11:32:58.923Z,6.30
2019-03-01T11:35:27.211Z,6.20
2019-03-01T11:37:55.487Z,6.20
2019-03-01T11:40:27.071Z,6.20
2019-03-01T11:42:55.384Z,6.30
2019-03-01T11:45:23.692Z,6.30
2019-03-01T11:47:52.023Z,6.40
2019-03-01T11:50:22.355Z,6.40
2019-03-01T11:52:50.718Z,6.40
2019-03-01T11:55:19.187Z,6.40
2019-03-01T11:57:47.547Z,6.30
2019-03-01T12:00:22.288Z,6.30
2019-03-01T12:02:50.985Z,6.20
2019-03-01T12:05:19.475Z,6.10
2019-03-01T12:07:47.833Z,6.10
2019-03-01T12:10:18.087Z,6.10
2019-03-01T12:12:46.439Z,6.00
2019-03-01T12:15:14.725Z,6.00
2019-03-01T12:17:43.113Z,6.10
2019-03-01T12:20:18.913Z,6.00
2019-03-01T12:22:47.317Z,6.00
2019-03-01T12:25:15.772Z,6.00
2019-03-01T12:27:44.123Z,6.10
2019-03-01T12:30:20.747Z,6.10
2019-03-01T12:32:49.035Z,6.20
2019-03-01T12:35:17.386Z,6.20
2019-03-01T12:37:45.791Z,6.10
2019-03-01T12:40:19.947Z,6.00
2019-03-01T12:42:48.228Z,6.00
2019-03-01T12:45:16.592Z,5.90
2019-03-01T12:47:44.943Z,5.90
2019-03-01T12:50:14.388Z,5.90
2019-03-01T12:52:43.244Z,5.90
2019-03-01T12:55:17.683Z,5.90
2019-03-01T12:57:46.011Z,5.80
2019-03-01T13:00:32.891Z,5.80
2019-03-01T13:03:01.246Z,5.70
2019-03-01T13:05:30.338Z,5.80
2019-03-01T13:07:58.906Z,5.90
2019-03-01T13:10:30.206Z,5.90
2019-03-01T13:13:01.582Z,6.00
2019-03-01T13:15:28.555Z,6.00
2019-03-01T13:17:56.853Z,6.10
2019-03-01T13:20:26.656Z,6.10
2019-03-01T13:22:54.979Z,6.20
2019-03-01T13:25:29.527Z,6.10
2019-03-01T13:27:57.598Z,6.00
2019-03-01T13:30:27.263Z,6.00
2019-03-01T13:32:55.088Z,5.90
2019-03-01T13:35:26.225Z,5.80
2019-03-01T13:37:55.255Z,5.70
2019-03-01T13:40:24.445Z,5.70
2019-03-01T13:42:53.611Z,5.60
2019-03-01T13:45:27.939Z,5.50
2019-03-01T13:47:56.275Z,5.40
2019-03-01T13:50:24.580Z,5.40
2019-03-01T13:52:52.932Z,5.40
2019-03-01T13:55:23.230Z,5.40
2019-03-01T13:57:51.717Z,5.30
2019-03-01T14:00:23.187Z,5.40
2019-03-01T14:02:51.478Z,5.40
2019-03-01T14:05:19.762Z,5.30
2019-03-01T14:07:52.245Z,5.20
2019-03-01T14:10:21.492Z,5.20
2019-03-01T14:12:49.911Z,5.20
2019-03-01T14:15:18.287Z,5.00
2019-03-01T14:18:04.223Z,5.00
2019-03-01T14:20:32.632Z,5.00
2019-03-01T14:23:00.955Z,5.00
2019-03-01T14:25:29.515Z,4.90
2019-03-01T14:28:02.011Z,5.00
2019-03-01T14:30:33.077Z,5.00
2019-03-01T14:33:03.340Z,5.10
2019-03-01T14:35:31.833Z,5.00
2019-03-01T14:38:00.118Z,5.00
2019-03-01T14:40:28.507Z,5.00
2019-03-01T14:42:56.801Z,4.90
2019-03-01T14:45:28.842Z,5.00
2019-03-01T14:48:00.112Z,5.00
2019-03-01T14:50:29.962Z,4.90
2019-03-01T14:52:59.595Z,5.20
2019-03-01T14:55:33.721Z,5.30
2019-03-01T14:58:12.284Z,5.30
2019-03-01T15:00:50.983Z,5.20
2019-03-01T15:03:33.372Z,5.20
2019-03-01T15:06:01.744Z,5.10
2019-03-01T15:08:30.108Z,5.00
2019-03-01T15:11:00.330Z,5.00
2019-03-01T15:13:31.442Z,5.10
2019-03-01T15:16:01.041Z,5.10
2019-03-01T15:18:28.990Z,5.10
2019-03-01T15:21:02.379Z,5.20
2019-03-01T15:23:28.874Z,5.20
2019-03-01T15:25:57.256Z,5.20
2019-03-01T15:28:25.604Z,5.20
2019-03-01T15:30:53.883Z,5.00
2019-03-01T15:33:22.156Z,5.00
2019-03-01T15:35:50.559Z,5.00
2019-03-01T15:38:18.909Z,4.90
2019-03-01T15:40:47.192Z,4.90
2019-03-01T15:43:15.575Z,5.00
2019-03-01T15:45:43.864Z,4.90
2019-03-01T15:48:12.220Z,4.90
2019-03-01T15:50:40.544Z,5.00
2019-03-01T15:53:08.900Z,5.00
2019-03-01T15:55:37.255Z,5.00
2019-03-01T15:58:05.559Z,5.00
2019-03-01T16:00:34.020Z,4.90
2019-03-01T16:03:02.307Z,4.90
2019-03-01T16:05:30.695Z,4.70
2019-03-01T16:07:58.967Z,4.80
2019-03-01T16:10:27.251Z,4.90
2019-03-01T16:12:55.568Z,4.90
2019-03-01T16:15:23.950Z,4.90
2019-03-01T16:17:52.429Z,4.90
2019-03-01T16:20:21.074Z,4.90
2019-03-01T16:22:51.165Z,4.70
2019-03-01T16:25:20.659Z,4.70
2019-03-01T16:27:50.620Z,4.70
2019-03-01T16:30:20.492Z,4.70
2019-03-01T16:32:50.481Z,4.80
2019-03-01T16:35:19.951Z,4.90
2019-03-01T16:37:57.899Z,4.70
2019-03-01T16:40:25.969Z,4.80
2019-03-01T16:42:54.722Z,4.80
2019-03-01T16:45:23.088Z,4.80
2019-03-01T16:47:51.422Z,4.80
2019-03-01T16:50:22.670Z,4.80
2019-03-01T16:52:51.019Z,4.80
2019-03-01T16:55:27.771Z,4.70
2019-03-01T16:58:06.245Z,4.70
2019-03-01T17:00:27.597Z,4.70
2019-03-01T17:03:07.255Z,4.80
2019-03-01T17:05:35.692Z,4.70
2019-03-01T17:08:06.010Z,4.70
2019-03-01T17:10:54.113Z,4.70
2019-03-01T17:13:23.573Z,4.70
2019-03-01T17:15:52.464Z,4.70
2019-03-01T17:18:20.779Z,4.70
2019-03-01T17:20:49.059Z,4.70
2019-03-01T17:23:17.459Z,4.60
2019-03-01T17:25:47.588Z,4.60
2019-03-01T17:28:16.410Z,4.50
2019-03-01T17:30:46.676Z,4.60
2019-03-01T17:33:15.903Z,4.50
2019-03-01T17:35:44.180Z,4.60
2019-03-01T17:38:12.483Z,4.60
2019-03-01T17:40:40.829Z,4.70
2019-03-01T17:43:09.311Z,4.60
2019-03-01T17:45:37.681Z,4.60
2019-03-01T17:48:06.063Z,4.60
2019-03-01T17:50:34.344Z,4.70
2019-03-01T17:53:06.110Z,4.70
2019-03-01T17:55:34.384Z,4.80
2019-03-01T17:58:05.422Z,4.80
2019-03-01T18:00:34.517Z,4.70
2019-03-01T18:03:02.832Z,4.70
2019-03-01T18:05:31.440Z,4.70
2019-03-01T18:08:03.355Z,4.80
2019-03-01T18:10:32.066Z,4.80
2019-03-01T18:12:59.815Z,4.60
2019-03-01T18:15:28.094Z,4.50
2019-03-01T18:17:56.403Z,4.60
2019-03-01T18:20:24.778Z,4.70
2019-03-01T18:22:53.131Z,4.70
2019-03-01T18:25:22.744Z,4.60
2019-03-01T18:27:53.076Z,4.50
2019-03-01T18:30:27.083Z,4.60
2019-03-01T18:32:55.378Z,4.50
2019-03-01T18:35:27.791Z,4.40
2019-03-01T18:37:56.269Z,4.40
2019-03-01T18:40:24.792Z,4.40
2019-03-01T18:42:53.068Z,4.50
2019-03-01T18:45:27.878Z,4.50
2019-03-01T18:47:56.219Z,4.50
2019-03-01T18:50:31.336Z,4.50
2019-03-01T18:53:03.445Z,4.50
2019-03-01T18:55:32.308Z,4.50
2019-03-01T18:58:00.664Z,4.40
2019-03-01T19:00:35.779Z,4.40
2019-03-01T19:03:05.504Z,4.40
2019-03-01T19:05:36.719Z,4.40
2019-03-01T19:08:04.898Z,4.40
2019-03-01T19:10:34.686Z,4.30
2019-03-01T19:13:02.978Z,4.30
2019-03-01T19:15:31.504Z,4.20
2019-03-01T19:17:59.787Z,4.20
2019-03-01T19:20:38.003Z,4.10
2019-03-01T19:23:07.181Z,3.90
2019-03-01T19:25:35.452Z,3.80
2019-03-01T19:28:03.781Z,3.70
2019-03-01T19:30:32.138Z,3.50
2019-03-01T19:33:02.296Z,3.50
2019-03-01T19:35:30.549Z,3.50
2019-03-01T19:37:58.912Z,3.40
2019-03-01T19:40:27.275Z,3.40
2019-03-01T19:42:57.283Z,3.20
2019-03-01T19:45:25.788Z,3.20
2019-03-01T19:47:54.080Z,3.10
2019-03-01T19:50:27.532Z,2.80
2019-03-01T19:52:55.809Z,2.70
2019-03-01T19:55:24.158Z,2.70
2019-03-01T19:57:52.596Z,2.60
2019-03-01T20:00:29.070Z,2.50
2019-03-01T20:02:57.549Z,2.40
2019-03-01T20:05:39.847Z,2.20
2019-03-01T20:08:08.183Z,2.30
2019-03-01T20:10:37.009Z,2.30
2019-03-01T20:13:05.537Z,2.40
2019-03-01T20:15:33.945Z,2.40
2019-03-01T20:18:02.386Z,2.30
2019-03-01T20:20:33.526Z,2.10
2019-03-01T20:23:00.800Z,2.30
2019-03-01T20:25:29.075Z,2.30
2019-03-01T20:27:57.357Z,2.00
2019-03-01T20:30:32.892Z,1.80
2019-03-01T20:33:01.259Z,1.60
2019-03-01T20:35:29.669Z,1.40
2019-03-01T20:38:00.009Z,1.30
2019-03-01T20:40:28.320Z,1.20
2019-03-01T20:43:01.270Z,1.20
2019-03-01T20:45:38.067Z,1.30
2019-03-01T20:48:05.761Z,1.60
2019-03-01T20:50:34.109Z,1.70
2019-03-01T20:53:02.460Z,1.50
2019-03-01T20:55:33.229Z,1.20
2019-03-01T20:58:03.139Z,0.90
2019-03-01T21:00:30.891Z,0.80
2019-03-01T21:02:59.180Z,0.80
2019-03-01T21:05:29.280Z,0.70
2019-03-01T21:07:57.648Z,0.70
2019-03-01T21:10:30.982Z,0.70
2019-03-01T21:12:59.685Z,0.90
2019-03-01T21:15:28.087Z,0.90
2019-03-01T21:17:57.117Z,0.70
2019-03-01T21:20:26.460Z,0.70
2019-03-01T21:22:54.817Z,0.60
2019-03-01T21:25:24.905Z,0.60
2019-03-01T21:27:53.209Z,0.60
2019-03-01T21:30:31.763Z,0.90
2019-03-01T21:33:00.035Z,1.00
2019-03-01T21:35:28.336Z,1.00
2019-03-01T21:37:56.791Z,1.00
2019-03-01T21:40:25.145Z,1.00
2019-03-01T21:42:57.385Z,0.90
2019-03-01T21:45:24.574Z,0.90
2019-03-01T21:47:52.955Z,0.90
2019-03-01T21:50:21.315Z,0.90
2019-03-01T21:52:49.692Z,0.70
2019-03-01T21:55:28.530Z,0.70
2019-03-01T21:57:55.755Z,0.70
2019-03-01T22:00:29.993Z,0.60
2019-03-01T22:02:58.007Z,0.60
2019-03-01T22:05:26.393Z,0.50
2019-03-01T22:07:54.668Z,0.40
2019-03-01T22:10:23.015Z,0.50
2019-03-01T22:12:51.331Z,0.50
2019-03-01T22:15:28.107Z,0.60
2019-03-01T22:17:56.818Z,0.50
2019-03-01T22:20:25.687Z,0.60
2019-03-01T22:22:54.226Z,0.50
2019-03-01T22:25:23.022Z,0.50
2019-03-01T22:27:51.626Z,0.40
2019-03-01T22:30:26.123Z,0.30
2019-03-01T22:32:54.711Z,0.40
2019-03-01T22:35:23.311Z,0.40
2019-03-01T22:37:53.340Z,0.40
2019-03-01T22:40:23.889Z,0.30
2019-03-01T22:42:52.450Z,0.20
2019-03-01T22:45:20.984Z,0.30
2019-03-01T22:47:49.632Z,0.20
2019-03-01T22:50:19.335Z,0.20
2019-03-01T22:52:47.075Z,0.20
2019-03-01T22:55:19.642Z,0.10
2019-03-01T22:57:48.181Z,0.00
2019-03-01T23:00:49.930Z,-0.10
2019-03-01T23:03:20.272Z,-0.30
2019-03-01T23:05:48.955Z,-0.60
2019-03-01T23:08:17.584Z,-0.90
2019-03-01T23:10:46.110Z,-1.00
2019-03-01T23:13:16.871Z,-0.90
2019-03-01T23:15:44.874Z,-0.90
2019-03-01T23:18:13.559Z,-1.00
2019-03-01T23:20:42.186Z,-1.00
2019-03-01T23:23:10.827Z,-1.10
2019-03-01T23:25:39.361Z,-1.20
2019-03-01T23:28:09.201Z,-1.30
2019-03-01T23:30:37.885Z,-1.30
2019-03-01T23:33:06.388Z,-1.20
2019-03-01T23:35:34.908Z,-1.20
2019-03-01T23:38:03.619Z,-1.20
2019-03-01T23:40:32.733Z,-1.20
2019-03-01T23:43:02.268Z,-1.20
2019-03-01T23:45:30.920Z,-1.30
2019-03-01T23:47:59.451Z,-1.30
2019-03-01T23:50:28.072Z,-1.30
2019-03-01T23:52:58.839Z,-1.30
2019-03-01T23:55:26.827Z,-1.30
2019-03-01T23:57:55.369Z,-1.40
